createdAt,value
2022-12-19T00:01:58.597Z,102635.25
2022-12-19T00:04:26.784Z,102633.50
2022-12-19T00:06:57.485Z,102645.50
2022-12-19T00:09:26.351Z,102637.00
2022-12-19T00:11:53.571Z,102631.84
2022-12-19T00:14:21.562Z,102635.25
2022-12-19T00:16:48.834Z,102636.16
2022-12-19T00:19:17.973Z,102627.69
2022-12-19T00:21:45.542Z,102618.28
2022-12-19T00:24:21.215Z,102621.59
2022-12-19T00:26:50.631Z,102628.38
2022-12-19T00:29:19.329Z,102620.72
2022-12-19T00:31:47.509Z,102631.78
2022-12-19T00:34:15.550Z,102638.72
2022-12-19T00:36:43.592Z,102626.09
2022-12-19T00:39:12.405Z,102633.66
2022-12-19T00:41:42.667Z,102629.94
2022-12-19T00:44:16.431Z,102641.94
2022-12-19T00:46:44.558Z,102640.19
2022-12-19T00:49:21.628Z,102644.47
2022-12-19T00:51:50.334Z,102641.13
2022-12-19T00:54:19.056Z,102648.00
2022-12-19T00:56:47.715Z,102641.94
2022-12-19T00:59:17.136Z,102636.91
2022-12-19T01:01:59.642Z,102634.41
2022-12-19T01:04:28.500Z,102646.28
2022-12-19T01:07:01.954Z,102644.66
2022-12-19T01:09:35.608Z,102633.59
2022-12-19T01:12:24.690Z,102642.09
2022-12-19T01:15:03.880Z,102635.19
2022-12-19T01:17:35.489Z,102632.19
2022-12-19T01:20:14.743Z,102629.53
2022-12-19T01:22:44.222Z,102635.16
2022-12-19T01:25:15.237Z,102635.16
2022-12-19T01:27:42.840Z,102636.00
2022-12-19T01:30:11.762Z,102633.31
2022-12-19T01:32:40.603Z,102634.25
2022-12-19T01:35:12.349Z,102643.50
2022-12-19T01:37:49.264Z,102640.13
2022-12-19T01:40:18.438Z,102634.84
2022-12-19T01:42:46.928Z,102637.47
2022-12-19T01:45:16.155Z,102638.38
2022-12-19T01:47:44.335Z,102648.56
2022-12-19T01:50:20.980Z,102656.97
2022-12-19T01:52:49.035Z,102663.81
2022-12-19T01:55:17.955Z,102673.28
2022-12-19T01:57:46.838Z,102669.06
2022-12-19T02:00:15.808Z,102672.44
2022-12-19T02:02:55.685Z,102672.38
2022-12-19T02:05:23.521Z,102668.81
2022-12-19T02:07:53.246Z,102663.69
2022-12-19T02:10:22.233Z,102669.59
2022-12-19T02:12:50.806Z,102666.78
2022-12-19T02:15:21.229Z,102668.47
2022-12-19T02:18:00.188Z,102670.66
2022-12-19T02:20:29.335Z,102663.63
2022-12-19T02:23:17.025Z,102661.09
2022-12-19T02:25:51.268Z,102653.16
2022-12-19T02:28:23.484Z,102654.00
2022-12-19T02:31:17.429Z,102643.69
2022-12-19T02:34:15.965Z,102636.56
2022-12-19T02:37:01.595Z,102634.72
2022-12-19T02:39:35.353Z,102636.28
2022-12-19T02:42:08.351Z,102641.31
2022-12-19T02:44:50.186Z,102630.16
2022-12-19T02:47:19.078Z,102649.63
2022-12-19T02:49:47.181Z,102654.56
2022-12-19T02:52:21.130Z,102644.31
2022-12-19T02:54:53.552Z,102642.75
2022-12-19T02:57:42.347Z,102637.59
2022-12-19T03:00:10.864Z,102639.28
2022-12-19T03:02:57.925Z,102630.00
2022-12-19T03:05:42.846Z,102642.03
2022-12-19T03:08:24.296Z,102633.50
2022-12-19T03:11:13.869Z,102632.56
2022-12-19T03:14:08.413Z,102642.75
2022-12-19T03:16:37.188Z,102639.28
2022-12-19T03:19:12.137Z,102639.38
2022-12-19T03:21:47.936Z,102630.75
2022-12-19T03:24:17.480Z,102628.06
2022-12-19T03:26:49.916Z,102636.34
2022-12-19T03:29:32.937Z,102640.81
2022-12-19T03:32:03.852Z,102644.03
2022-12-19T03:34:45.070Z,102638.72
2022-12-19T03:37:14.764Z,102626.81
2022-12-19T03:39:43.702Z,102636.34
2022-12-19T03:42:30.767Z,102635.44
2022-12-19T03:45:01.433Z,102619.00
2022-12-19T03:47:33.152Z,102625.38
2022-12-19T03:50:01.277Z,102626.25
2022-12-19T03:52:34.428Z,102624.22
2022-12-19T03:55:08.282Z,102623.28
2022-12-19T03:58:02.408Z,102621.72
2022-12-19T04:00:31.940Z,102621.72
2022-12-19T04:02:59.537Z,102608.69
2022-12-19T04:05:28.028Z,102620.44
2022-12-19T04:08:02.456Z,102616.78
2022-12-19T04:10:29.990Z,102621.03
2022-12-19T04:13:06.232Z,102622.88
2022-12-19T04:15:38.316Z,102633.81
2022-12-19T04:18:07.214Z,102627.91
2022-12-19T04:20:37.332Z,102627.19
2022-12-19T04:23:08.148Z,102621.19
2022-12-19T04:25:38.337Z,102624.63
2022-12-19T04:28:10.095Z,102626.25
2022-12-19T04:30:42.413Z,102637.25
2022-12-19T04:33:09.710Z,102621.31
2022-12-19T04:35:38.676Z,102621.13
2022-12-19T04:38:06.732Z,102621.97
2022-12-19T04:40:40.801Z,102622.66
2022-12-19T04:43:09.175Z,102627.94
2022-12-19T04:45:36.703Z,102618.53
2022-12-19T04:48:08.168Z,102621.81
2022-12-19T04:50:36.205Z,102623.31
2022-12-19T04:53:03.383Z,102620.44
2022-12-19T04:55:32.182Z,102619.88
2022-12-19T04:58:01.135Z,102619.41
2022-12-19T05:00:30.262Z,102624.56
2022-12-19T05:02:59.089Z,102627.31
2022-12-19T05:05:27.861Z,102631.53
2022-12-19T05:07:55.494Z,102624.78
2022-12-19T05:10:22.950Z,102634.75
2022-12-19T05:12:51.618Z,102633.75
2022-12-19T05:15:18.745Z,102630.06
2022-12-19T05:17:46.753Z,102630.34
2022-12-19T05:20:14.639Z,102636.91
2022-12-19T05:22:42.673Z,102639.66
2022-12-19T05:25:10.695Z,102632.00
2022-12-19T05:27:38.279Z,102611.72
2022-12-19T05:30:07.085Z,102605.09
2022-12-19T05:32:36.031Z,102614.06
2022-12-19T05:35:04.999Z,102604.47
2022-12-19T05:37:33.160Z,102607.31
2022-12-19T05:40:00.932Z,102608.06
2022-12-19T05:42:31.246Z,102607.13
2022-12-19T05:45:00.623Z,102614.03
2022-12-19T05:47:28.591Z,102621.13
2022-12-19T05:49:56.579Z,102634.53
2022-12-19T05:52:24.741Z,102635.13
2022-12-19T05:54:51.794Z,102635.88
2022-12-19T05:57:20.190Z,102634.34
2022-12-19T05:59:47.575Z,102639.56
2022-12-19T06:02:15.123Z,102643.03
2022-12-19T06:04:43.032Z,102638.00
2022-12-19T06:07:10.994Z,102644.00
2022-12-19T06:09:41.778Z,102651.53
2022-12-19T06:12:09.445Z,102643.03
2022-12-19T06:14:37.618Z,102644.66
2022-12-19T06:17:04.709Z,102662.06
2022-12-19T06:19:34.018Z,102664.81
2022-12-19T06:22:02.427Z,102653.03
2022-12-19T06:24:29.858Z,102653.84
2022-12-19T06:26:56.901Z,102660.72
2022-12-19T06:29:24.451Z,102657.63
2022-12-19T06:32:43.978Z,102661.59
2022-12-19T06:35:12.955Z,102657.84
2022-12-19T06:37:40.048Z,102657.84
2022-12-19T06:40:07.882Z,102656.06
2022-12-19T06:42:36.643Z,102658.47
2022-12-19T06:45:04.003Z,102667.88
2022-12-19T06:47:31.576Z,102659.38
2022-12-19T06:49:59.580Z,102644.19
2022-12-19T06:52:27.503Z,102651.38
2022-12-19T06:54:57.554Z,102644.50
2022-12-19T06:57:28.241Z,102654.75
2022-12-19T06:59:59.330Z,102654.06
2022-12-19T07:02:31.121Z,102659.19
2022-12-19T07:05:18.439Z,102668.16
2022-12-19T07:07:46.904Z,102673.72
2022-12-19T07:10:15.772Z,102672.53
2022-12-19T07:12:44.757Z,102667.38
2022-12-19T07:15:12.355Z,102682.59
2022-12-19T07:17:39.616Z,102683.34
2022-12-19T07:20:08.125Z,102678.31
2022-12-19T07:22:37.922Z,102673.44
2022-12-19T07:25:06.835Z,102670.06
2022-12-19T07:27:39.953Z,102663.31
2022-12-19T07:30:09.175Z,102663.41
2022-12-19T07:32:36.631Z,102665.44
2022-12-19T07:35:04.069Z,102663.81
2022-12-19T07:37:37.580Z,102666.69
2022-12-19T07:40:07.759Z,102674.72
2022-12-19T07:42:35.176Z,102669.78
2022-12-19T07:45:02.396Z,102664.59
2022-12-19T07:47:33.179Z,102661.72
2022-12-19T07:50:01.534Z,102658.94
2022-12-19T07:52:29.166Z,102660.63
2022-12-19T07:54:56.643Z,102667.28
2022-12-19T07:57:28.689Z,102673.16
2022-12-19T08:00:04.754Z,102681.00
2022-12-19T08:02:41.296Z,102674.13
2022-12-19T08:05:09.279Z,102672.50
2022-12-19T08:07:36.641Z,102662.38
2022-12-19T08:10:04.045Z,102665.84
2022-12-19T08:12:33.862Z,102677.06
2022-12-19T08:15:01.001Z,102675.59
2022-12-19T08:17:28.245Z,102680.84
2022-12-19T08:19:55.503Z,102674.97
2022-12-19T08:22:26.696Z,102677.88
2022-12-19T08:24:53.885Z,102678.69
2022-12-19T08:27:21.123Z,102682.78
2022-12-19T08:29:48.321Z,102672.59
2022-12-19T08:32:20.852Z,102669.22
2022-12-19T08:34:50.547Z,102672.88
2022-12-19T08:37:21.089Z,102665.44
2022-12-19T08:39:48.429Z,102673.41
2022-12-19T08:42:23.945Z,102668.53
2022-12-19T08:44:51.212Z,102661.66
2022-12-19T08:47:20.628Z,102660.03
2022-12-19T08:53:38.947Z,102657.84
2022-12-19T08:56:15.300Z,102661.06
2022-12-19T08:58:42.909Z,102666.25
2022-12-19T09:01:16.413Z,102662.81
2022-12-19T09:05:55.510Z,102660.19
2022-12-19T09:06:32.131Z,102660.97
2022-12-19T09:11:47.621Z,102660.31
2022-12-19T09:14:21.470Z,102675.69
2022-12-19T09:17:04.869Z,102674.00
2022-12-19T09:19:32.536Z,102672.41
2022-12-19T09:21:59.717Z,102669.81
2022-12-19T09:24:27.001Z,102675.84
2022-12-19T09:26:54.719Z,102668.16
2022-12-19T09:29:22.551Z,102676.78
2022-12-19T09:31:55.264Z,102674.28
2022-12-19T09:34:29.967Z,102683.72
2022-12-19T09:37:11.694Z,102682.13
2022-12-19T09:39:59.420Z,102689.09
2022-12-19T09:42:53.396Z,102678.81
2022-12-19T09:45:31.700Z,102670.59
2022-12-19T09:48:00.802Z,102672.34
2022-12-19T09:50:46.842Z,102677.47
2022-12-19T09:53:28.981Z,102669.97
2022-12-19T09:56:00.242Z,102670.00
2022-12-19T09:58:40.698Z,102668.34
2022-12-19T10:01:21.500Z,102667.41
2022-12-19T10:04:20.282Z,102660.66
2022-12-19T10:07:16.303Z,102667.47
2022-12-19T10:11:53.370Z,102656.31
2022-12-19T10:12:51.353Z,102652.13
2022-12-19T10:15:34.838Z,102662.53
2022-12-19T10:18:32.881Z,102652.47
2022-12-19T10:21:05.543Z,102661.41
2022-12-19T10:23:36.985Z,102660.44
2022-12-19T10:26:14.772Z,102657.84
2022-12-19T10:28:54.919Z,102652.88
2022-12-19T10:31:31.762Z,102653.78
2022-12-19T10:34:20.570Z,102652.22
2022-12-19T10:39:46.042Z,102647.91
2022-12-19T10:42:25.078Z,102640.31
2022-12-19T10:44:53.858Z,102644.97
2022-12-19T10:47:21.161Z,102643.75
2022-12-19T10:52:49.287Z,102638.53
2022-12-19T10:55:29.730Z,102626.34
2022-12-19T10:58:15.951Z,102631.41
2022-12-19T11:01:02.306Z,102627.13
2022-12-19T11:03:42.235Z,102616.94
2022-12-19T11:06:33.243Z,102616.13
2022-12-19T11:09:27.897Z,102612.72
2022-12-19T11:15:45.417Z,102613.03
2022-12-19T11:20:30.689Z,102612.19
2022-12-19T11:23:50.450Z,102612.94
2022-12-19T11:29:33.482Z,102599.47
2022-12-19T11:29:38.523Z,102606.91
2022-12-19T11:30:47.661Z,102598.69
2022-12-19T11:32:47.074Z,102592.66
2022-12-19T11:35:24.754Z,102585.09
2022-12-19T11:37:57.391Z,102579.03
2022-12-19T11:40:31.512Z,102577.22
2022-12-19T11:46:16.261Z,102569.66
2022-12-19T11:48:51.415Z,102568.94
2022-12-19T11:51:22.305Z,102569.16
2022-12-19T11:54:03.034Z,102564.22
2022-12-19T11:56:31.004Z,102564.88
2022-12-19T11:59:12.105Z,102564.13
2022-12-19T12:01:48.368Z,102564.13
2022-12-19T12:04:38.603Z,102552.03
2022-12-19T12:07:38.195Z,102552.91
2022-12-19T12:13:31.751Z,102552.28
2022-12-19T12:19:27.923Z,102552.28
2022-12-19T12:27:12.271Z,102543.81
2022-12-19T12:31:26.003Z,102533.88
2022-12-19T12:31:29.887Z,102544.00
2022-12-19T12:31:50.631Z,102539.06
2022-12-19T12:31:51.534Z,102533.06
2022-12-19T12:32:02.525Z,102530.25
2022-12-19T12:35:46.222Z,102531.31
2022-12-19T12:40:58.915Z,102515.78
2022-12-19T12:43:47.294Z,102516.88
2022-12-19T12:46:17.714Z,102513.53
2022-12-19T12:49:00.393Z,102522.03
2022-12-19T12:51:29.421Z,102511.06
2022-12-19T12:54:08.180Z,102497.16
2022-12-19T12:56:44.181Z,102503.41
2022-12-19T12:59:24.554Z,102501.66
2022-12-19T13:01:53.585Z,102508.34
2022-12-19T13:04:26.346Z,102504.78
2022-12-19T13:06:56.596Z,102503.19
2022-12-19T13:09:29.207Z,102498.97
2022-12-19T13:12:36.569Z,102506.66
2022-12-19T13:15:37.584Z,102489.56
2022-12-19T13:18:14.169Z,102494.75
2022-12-19T13:20:41.682Z,102500.50
2022-12-19T13:23:24.726Z,102503.22
2022-12-19T13:25:53.722Z,102495.44
2022-12-19T13:28:22.180Z,102495.47
2022-12-19T13:31:20.854Z,102486.84
2022-12-19T13:33:52.048Z,102497.00
2022-12-19T13:39:51.848Z,102493.19
2022-12-19T13:40:11.050Z,102491.38
2022-12-19T13:43:28.609Z,102492.28
2022-12-19T13:46:01.136Z,102489.72
2022-12-19T13:48:44.229Z,102490.50
2022-12-19T13:55:19.836Z,102491.22
2022-12-19T13:57:48.686Z,102497.25
2022-12-19T14:00:32.568Z,102492.97
2022-12-19T14:03:00.468Z,102497.38
2022-12-19T14:06:16.636Z,102494.72
2022-12-19T14:08:32.184Z,102496.34
2022-12-19T14:11:40.550Z,102494.59
2022-12-19T14:14:34.190Z,102499.84
2022-12-19T14:17:10.468Z,102500.75
2022-12-19T14:19:43.669Z,102503.25
2022-12-19T14:22:25.801Z,102496.28
2022-12-19T14:28:14.265Z,102489.41
2022-12-19T14:28:21.477Z,102486.78
2022-12-19T14:31:00.476Z,102489.38
2022-12-19T14:33:47.342Z,102484.22
2022-12-19T14:36:27.240Z,102477.41
2022-12-19T14:39:24.999Z,102487.72
2022-12-19T14:42:11.320Z,102500.50
2022-12-19T14:52:25.408Z,102496.22
2022-12-19T14:52:34.560Z,102496.34
2022-12-19T14:54:23.584Z,102498.03
2022-12-19T14:54:40.845Z,102496.28
2022-12-19T14:56:50.557Z,102497.16
2022-12-19T15:02:12.281Z,102496.28
2022-12-19T15:04:50.229Z,102497.09
2022-12-19T15:07:38.877Z,102498.69
2022-12-19T15:14:53.426Z,102500.25
2022-12-19T15:16:24.597Z,102498.66
2022-12-19T15:19:02.332Z,102500.97
2022-12-19T15:21:30.836Z,102500.78
2022-12-19T15:24:01.443Z,102498.88
2022-12-19T15:26:29.817Z,102502.09
2022-12-19T15:28:57.523Z,102507.00
2022-12-19T15:31:35.931Z,102510.25
2022-12-19T15:34:48.328Z,102513.53
2022-12-19T15:37:14.343Z,102509.09
2022-12-19T15:39:45.206Z,102508.16
2022-12-19T15:42:18.857Z,102508.09
2022-12-19T15:44:47.529Z,102500.34
2022-12-19T15:47:30.358Z,102508.03
2022-12-19T15:50:10.431Z,102495.97
2022-12-19T15:52:42.594Z,102494.97
2022-12-19T15:55:16.884Z,102494.06
2022-12-19T15:57:55.819Z,102486.25
2022-12-19T16:00:24.861Z,102487.84
2022-12-19T16:03:23.377Z,102482.56
2022-12-19T16:05:46.026Z,102479.94
2022-12-19T16:08:23.308Z,102480.81
2022-12-19T16:10:59.369Z,102486.69
2022-12-19T16:13:31.718Z,102490.09
2022-12-19T16:15:59.432Z,102494.22
2022-12-19T16:18:26.932Z,102488.97
2022-12-19T16:20:54.885Z,102493.88
2022-12-19T16:27:43.019Z,102499.06
2022-12-19T16:30:18.731Z,102499.91
2022-12-19T16:32:46.945Z,102498.34
2022-12-19T16:35:34.272Z,102491.50
2022-12-19T16:38:06.120Z,102490.47
2022-12-19T16:40:33.181Z,102489.53
2022-12-19T16:43:05.361Z,102487.91
2022-12-19T16:45:33.981Z,102490.38
2022-12-19T16:48:01.130Z,102492.00
2022-12-19T16:50:29.841Z,102492.81
2022-12-19T16:52:57.266Z,102479.94
2022-12-19T16:55:25.441Z,102484.28
2022-12-19T16:57:54.079Z,102491.00
2022-12-19T17:00:22.263Z,102495.31
2022-12-19T17:02:51.552Z,102485.88
2022-12-19T17:05:20.987Z,102491.00
2022-12-19T17:07:48.445Z,102490.94
2022-12-19T17:10:19.819Z,102487.53
2022-12-19T17:12:50.613Z,102489.22
2022-12-19T17:15:21.411Z,102494.41
2022-12-19T17:17:49.362Z,102492.69
2022-12-19T17:20:18.189Z,102485.88
2022-12-19T17:22:45.689Z,102484.16
2022-12-19T17:25:17.168Z,102481.53
2022-12-19T17:27:44.676Z,102491.00
2022-12-19T17:30:11.992Z,102490.94
2022-12-19T17:32:39.884Z,102507.94
2022-12-19T17:35:07.298Z,102501.06
2022-12-19T17:37:34.740Z,102501.84
2022-12-19T17:40:01.909Z,102489.00
2022-12-19T17:42:35.285Z,102497.59
2022-12-19T17:45:04.598Z,102494.00
2022-12-19T17:47:31.819Z,102502.44
2022-12-19T17:49:59.515Z,102502.28
2022-12-19T17:52:26.627Z,102510.09
2022-12-19T17:54:53.863Z,102502.28
2022-12-19T17:57:20.963Z,102495.19
2022-12-19T17:59:48.205Z,102497.81
2022-12-19T18:02:21.160Z,102492.75
2022-12-19T18:04:49.008Z,102497.25
2022-12-19T18:07:17.357Z,102490.34
2022-12-19T18:09:44.487Z,102482.59
2022-12-19T18:12:11.709Z,102485.19
2022-12-19T18:14:39.190Z,102484.34
2022-12-19T18:17:06.460Z,102488.63
2022-12-19T18:19:34.206Z,102488.56
2022-12-19T18:22:01.336Z,102486.81
2022-12-19T18:24:28.662Z,102486.81
2022-12-19T18:26:55.951Z,102488.50
2022-12-19T18:29:23.199Z,102488.56
2022-12-19T18:31:51.290Z,102488.53
2022-12-19T18:34:23.272Z,102488.56
2022-12-19T18:36:51.478Z,102488.50
2022-12-19T18:39:23.011Z,102496.16
2022-12-19T18:41:51.642Z,102500.41
2022-12-19T18:44:18.890Z,102500.38
2022-12-19T18:46:48.478Z,102498.59
2022-12-19T18:49:16.699Z,102498.53
2022-12-19T18:51:44.681Z,102493.41
2022-12-19T18:54:17.065Z,102496.88
2022-12-19T18:56:44.578Z,102492.75
2022-12-19T18:59:11.583Z,102479.06
2022-12-19T19:01:41.201Z,102478.25
2022-12-19T19:04:11.826Z,102481.56
2022-12-19T19:06:39.621Z,102482.38
2022-12-19T19:09:14.833Z,102478.25
2022-12-19T19:12:10.824Z,102479.88
2022-12-19T19:14:38.029Z,102486.78
2022-12-19T19:17:06.476Z,102483.38
2022-12-19T19:19:33.776Z,102484.28
2022-12-19T19:22:00.915Z,102479.44
2022-12-19T19:24:27.915Z,102482.75
2022-12-19T19:26:55.642Z,102483.75
2022-12-19T19:29:22.850Z,102477.78
2022-12-19T19:31:51.385Z,102477.94
2022-12-19T19:34:21.963Z,102473.66
2022-12-19T19:36:53.960Z,102472.03
2022-12-19T19:39:22.941Z,102466.97
2022-12-19T19:41:50.040Z,102473.84
2022-12-19T19:44:17.363Z,102468.75
2022-12-19T19:46:44.824Z,102462.84
2022-12-19T19:49:12.306Z,102465.50
2022-12-19T19:51:39.541Z,102469.00
2022-12-19T19:54:06.856Z,102463.97
2022-12-19T19:56:34.101Z,102465.69
2022-12-19T19:59:01.361Z,102458.91
2022-12-19T20:01:31.124Z,102459.00
2022-12-19T20:03:58.307Z,102458.22
2022-12-19T20:06:25.839Z,102458.25
2022-12-19T20:08:52.872Z,102454.00
2022-12-19T20:11:20.784Z,102462.63
2022-12-19T20:13:47.757Z,102454.16
2022-12-19T20:16:16.760Z,102456.81
2022-12-19T20:18:47.300Z,102447.47
2022-12-19T20:21:14.484Z,102448.34
2022-12-19T20:23:42.860Z,102444.03
2022-12-19T20:26:11.349Z,102451.78
2022-12-19T20:28:43.970Z,102451.88
2022-12-19T20:31:15.367Z,102452.78
2022-12-19T20:33:42.599Z,102448.59
2022-12-19T20:36:10.803Z,102443.44
2022-12-19T20:38:38.374Z,102440.91
2022-12-19T20:41:05.895Z,102439.22
2022-12-19T20:43:33.809Z,102442.69
2022-12-19T20:46:11.762Z,102439.25
2022-12-19T20:48:39.516Z,102443.59
2022-12-19T20:51:06.796Z,102435.94
2022-12-19T20:53:35.114Z,102438.53
2022-12-19T20:56:04.250Z,102437.78
2022-12-19T20:58:32.448Z,102430.97
2022-12-19T21:01:19.538Z,102429.28
2022-12-19T21:03:48.263Z,102422.50
2022-12-19T21:06:17.054Z,102429.41
2022-12-19T21:08:44.985Z,102429.47
2022-12-19T21:11:13.054Z,102428.56
2022-12-19T21:13:41.057Z,102429.47
2022-12-19T21:16:10.167Z,102424.34
2022-12-19T21:18:38.105Z,102424.38
2022-12-19T21:21:06.056Z,102420.09
2022-12-19T21:23:33.292Z,102427.81
2022-12-19T21:26:01.499Z,102424.44
2022-12-19T21:28:29.233Z,102420.19
2022-12-19T21:31:00.854Z,102413.34
2022-12-19T21:33:28.126Z,102419.34
2022-12-19T21:35:55.298Z,102427.97
2022-12-19T21:38:22.464Z,102428.84
2022-12-19T21:40:50.408Z,102427.19
2022-12-19T21:43:17.528Z,102435.75
2022-12-19T21:45:44.560Z,102431.53
2022-12-19T21:48:13.249Z,102428.09
2022-12-19T21:50:40.879Z,102423.75
2022-12-19T21:53:07.916Z,102429.84
2022-12-19T21:55:35.887Z,102423.00
2022-12-19T21:58:02.950Z,102430.72
2022-12-19T22:00:30.039Z,102422.16
2022-12-19T22:03:13.121Z,102426.44
2022-12-19T22:05:41.876Z,102419.56
2022-12-19T22:08:09.406Z,102416.13
2022-12-19T22:10:38.197Z,102417.81
2022-12-19T22:13:05.406Z,102416.97
2022-12-19T22:15:32.446Z,102416.13
2022-12-19T22:18:00.275Z,102416.91
2022-12-19T22:20:27.493Z,102412.59
2022-12-19T22:22:54.533Z,102407.44
2022-12-19T22:25:21.644Z,102414.31
2022-12-19T22:27:48.674Z,102409.19
2022-12-19T22:30:15.781Z,102410.06
2022-12-19T22:32:42.944Z,102398.91
2022-12-19T22:35:09.997Z,102404.03
2022-12-19T22:37:37.130Z,102406.63
2022-12-19T22:40:04.559Z,102405.75
2022-12-19T22:42:31.583Z,102390.34
2022-12-19T22:44:59.250Z,102393.81
2022-12-19T22:47:26.336Z,102396.38
2022-12-19T22:49:53.323Z,102393.81
2022-12-19T22:52:20.297Z,102395.50
2022-12-19T22:54:47.662Z,102394.81
2022-12-19T22:57:15.417Z,102395.63
2022-12-19T22:59:42.849Z,102393.03
2022-12-19T23:02:10.237Z,102396.44
2022-12-19T23:04:37.404Z,102389.56
2022-12-19T23:07:04.514Z,102388.72
2022-12-19T23:09:31.557Z,102387.03
2022-12-19T23:11:58.576Z,102393.91
2022-12-19T23:14:25.598Z,102388.75
2022-12-19T23:16:52.705Z,102393.13
2022-12-19T23:19:19.754Z,102385.41
2022-12-19T23:21:46.888Z,102388.88
2022-12-19T23:24:14.112Z,102385.41
2022-12-19T23:26:41.281Z,102386.41
2022-12-19T23:29:10.509Z,102384.63
2022-12-19T23:31:39.761Z,102378.59
2022-12-19T23:34:06.866Z,102381.13
2022-12-19T23:39:20.908Z,102378.53
2022-12-19T23:41:48.018Z,102373.38
2022-12-19T23:44:15.448Z,102374.28
2022-12-19T23:46:42.657Z,102374.31
2022-12-19T23:49:09.811Z,102380.31
2022-12-19T23:51:38.438Z,102375.13
2022-12-19T23:54:05.769Z,102375.16
2022-12-19T23:56:33.075Z,102374.34
2022-12-19T23:59:00.422Z,102364.88
